Time;durP1;ratioP1;P1;durP2;ratioP2;P2;SDS_P1;SDS_P2;PMS_P1;PMS_P2;Temp;Humidity;BMP_temperature;BMP_pressure;BME280_temperature;BME280_humidity;BME280_pressure;Samples;Min_cycle;Max_cycle;Signal;HPM_P1;HPM_P2
2022/09/06 00:00:37;;;;;;;4.18;3.17;;;;;;;;;;5053943;28;20072;-69
2022/09/06 00:03:04;;;;;;;3.95;3.55;;;;;;;;;;5053984;28;20073;-69
2022/09/06 00:05:31;;;;;;;5.25;3.40;;;;;;;;;;5053904;28;20053;-68
2022/09/06 00:07:58;;;;;;;5.32;2.92;;;;;;;;;;5053692;28;20080;-69
2022/09/06 00:10:25;;;;;;;5.88;3.35;;;;;;;;;;5053898;28;20580;-68
2022/09/06 00:12:52;;;;;;;6.30;3.30;;;;;;;;;;5053750;28;20136;-68
2022/09/06 00:15:18;;;;;;;5.63;3.47;;;;;;;;;;5053753;28;20107;-69
2022/09/06 00:17:45;;;;;;;4.57;3.45;;;;;;;;;;5053972;28;20052;-68
2022/09/06 00:20:11;;;;;;;5.15;3.00;;;;;;;;;;5053594;28;20130;-68
2022/09/06 00:22:38;;;;;;;4.78;3.15;;;;;;;;;;5053925;28;20465;-68
2022/09/06 00:25:05;;;;;;;4.03;3.25;;;;;;;;;;5053692;28;20048;-68
2022/09/06 00:27:31;;;;;;;4.07;3.63;;;;;;;;;;5053858;28;20453;-68
2022/09/06 00:29:58;;;;;;;7.33;3.83;;;;;;;;;;5053439;28;20532;-70
2022/09/06 00:32:25;;;;;;;5.45;3.97;;;;;;;;;;5053253;28;20057;-69
2022/09/06 00:34:51;;;;;;;4.68;3.30;;;;;;;;;;5053601;28;20139;-68
2022/09/06 00:37:18;;;;;;;6.75;4.18;;;;;;;;;;5053354;28;20293;-68
2022/09/06 00:39:44;;;;;;;6.38;3.67;;;;;;;;;;5053338;28;20477;-68
2022/09/06 00:42:12;;;;;;;4.60;3.97;;;;;;;;;;5053305;28;20513;-68
2022/09/06 00:44:39;;;;;;;4.63;3.88;;;;;;;;;;5053195;28;20076;-69
2022/09/06 00:47:07;;;;;;;5.90;3.80;;;;;;;;;;5053424;28;20144;-70
2022/09/06 00:49:37;;;;;;;5.05;3.90;;;;;;;;;;5053363;28;20053;-68
2022/09/06 00:52:05;;;;;;;4.70;3.88;;;;;;;;;;5053245;28;20467;-68
2022/09/06 00:54:31;;;;;;;5.65;3.83;;;;;;;;;;5053235;28;20087;-68
2022/09/06 00:56:58;;;;;;;6.28;4.63;;;;;;;;;;5052916;28;20049;-68
2022/09/06 00:59:25;;;;;;;5.50;3.75;;;;;;;;;;5052875;28;20080;-69
2022/09/06 01:01:52;;;;;;;;;;;;;;;;;;5053629;28;20131;-69
2022/09/06 01:04:18;;;;;;;5.88;4.07;;;;;;;;;;5052975;28;20276;-69
2022/09/06 01:06:45;;;;;;;4.32;3.35;;;;;;;;;;5052818;28;20083;-68
2022/09/06 01:09:30;;;;;;;5.22;4.13;;;;;;;;;;5052381;28;20088;-68
2022/09/06 01:12:19;;;;;;;5.32;3.83;;;;;;;;;;5052734;28;20083;-69
2022/09/06 01:15:15;;;;;;;6.30;4.30;;;;;;;;;;5052915;28;20088;-68
2022/09/06 01:17:50;;;;;;;6.95;3.95;;;;;;;;;;5043535;28;20163;-68
2022/09/06 01:20:29;;;;;;;4.55;3.85;;;;;;;;;;5053021;28;20076;-70
2022/09/06 01:23:11;;;;;;;5.80;4.07;;;;;;;;;;5052380;28;20084;-69
2022/09/06 01:25:43;;;;;;;10.43;4.45;;;;;;;;;;5052380;28;20152;-68
2022/09/06 01:28:10;;;;;;;8.38;4.72;;;;;;;;;;5052521;28;20041;-69
2022/09/06 01:30:39;;;;;;;8.88;4.43;;;;;;;;;;5052351;28;20083;-68
2022/09/06 01:33:05;;;;;;;6.22;4.60;;;;;;;;;;5052510;28;20053;-69
2022/09/06 01:35:32;;;;;;;11.10;4.82;;;;;;;;;;5052214;28;20076;-69
2022/09/06 01:37:59;;;;;;;6.10;4.57;;;;;;;;;;5051971;28;20475;-68
2022/09/06 01:40:26;;;;;;;9.13;4.73;;;;;;;;;;5038718;28;20041;-69
2022/09/06 01:42:54;;;;;;;8.07;4.85;;;;;;;;;;5052111;28;20132;-68
2022/09/06 01:45:24;;;;;;;7.35;4.50;;;;;;;;;;5051366;28;20136;-68
2022/09/06 01:48:01;;;;;;;8.30;4.70;;;;;;;;;;5052019;28;20566;-68
2022/09/06 01:50:43;;;;;;;14.25;5.00;;;;;;;;;;5051976;28;20080;-68
2022/09/06 01:53:19;;;;;;;4.78;3.70;;;;;;;;;;5052354;28;20085;-68
2022/09/06 01:56:04;;;;;;;4.35;3.88;;;;;;;;;;5052247;28;20080;-68
2022/09/06 01:58:50;;;;;;;9.43;4.60;;;;;;;;;;5051767;28;20075;-68
2022/09/06 02:01:20;;;;;;;7.43;4.78;;;;;;;;;;5051514;28;20076;-68
2022/09/06 02:03:51;;;;;;;8.93;5.13;;;;;;;;;;5052107;28;20051;-68
2022/09/06 02:06:25;;;;;;;4.72;4.32;;;;;;;;;;5051815;28;20076;-70
2022/09/06 02:08:56;;;;;;;5.85;5.07;;;;;;;;;;5051930;28;20091;-69
2022/09/06 02:11:23;;;;;;;7.28;4.35;;;;;;;;;;5051541;28;20080;-68
2022/09/06 02:13:53;;;;;;;6.85;4.45;;;;;;;;;;5051686;28;20135;-68
2022/09/06 02:16:22;;;;;;;6.43;3.97;;;;;;;;;;5051832;28;20139;-69
2022/09/06 02:18:51;;;;;;;8.50;4.10;;;;;;;;;;5051589;28;20057;-69
2022/09/06 02:21:21;;;;;;;8.65;4.57;;;;;;;;;;5051486;28;20171;-69
2022/09/06 02:23:48;;;;;;;6.60;4.18;;;;;;;;;;5051473;28;20473;-69
2022/09/06 02:26:20;;;;;;;7.90;4.95;;;;;;;;;;5051789;28;20136;-68
2022/09/06 02:28:47;;;;;;;9.73;4.10;;;;;;;;;;5051657;28;20077;-68
2022/09/06 02:31:17;;;;;;;7.40;4.00;;;;;;;;;;5051494;28;20076;-69
2022/09/06 02:33:44;;;;;;;8.07;4.13;;;;;;;;;;5051548;28;20080;-69
2022/09/06 02:36:11;;;;;;;4.82;4.00;;;;;;;;;;5051321;28;20084;-68
2022/09/06 02:38:39;;;;;;;7.53;4.72;;;;;;;;;;5051530;28;20091;-69
2022/09/06 02:41:05;;;;;;;5.88;4.32;;;;;;;;;;5050183;28;20077;-68
2022/09/06 02:43:32;;;;;;;10.30;4.70;;;;;;;;;;5051509;28;20064;-69
2022/09/06 02:45:59;;;;;;;6.53;4.50;;;;;;;;;;5051589;28;20080;-69
2022/09/06 02:48:25;;;;;;;8.35;4.75;;;;;;;;;;5051320;28;20049;-69
2022/09/06 02:50:52;;;;;;;7.15;5.30;;;;;;;;;;5051630;28;20076;-69
2022/09/06 02:53:18;;;;;;;9.88;5.30;;;;;;;;;;5051474;28;20469;-69
2022/09/06 02:55:46;;;;;;;7.50;4.90;;;;;;;;;;5051876;28;20079;-69
2022/09/06 02:58:13;;;;;;;11.05;5.15;;;;;;;;;;5055396;28;20053;-69
2022/09/06 03:00:40;;;;;;;8.48;5.60;;;;;;;;;;5055008;28;20079;-69
2022/09/06 03:03:06;;;;;;;6.80;5.78;;;;;;;;;;5055103;28;20045;-68
2022/09/06 03:05:33;;;;;;;8.90;5.30;;;;;;;;;;5048931;28;20114;-68
2022/09/06 03:07:59;;;;;;;7.22;5.60;;;;;;;;;;5054974;28;20453;-68
2022/09/06 03:10:25;;;;;;;9.55;5.65;;;;;;;;;;5054857;28;20095;-69
2022/09/06 03:12:52;;;;;;;10.40;5.65;;;;;;;;;;5055111;28;20074;-69
2022/09/06 03:15:19;;;;;;;8.27;6.25;;;;;;;;;;5054766;28;20488;-68
2022/09/06 03:17:45;;;;;;;10.50;6.87;;;;;;;;;;5055166;28;20053;-69
2022/09/06 03:20:12;;;;;;;12.10;7.07;;;;;;;;;;5054872;28;20455;-69
2022/09/06 03:22:38;;;;;;;10.95;6.88;;;;;;;;;;5055002;28;20068;-69
2022/09/06 03:25:05;;;;;;;9.45;6.50;;;;;;;;;;5054942;28;20167;-69
2022/09/06 03:27:33;;;;;;;8.98;6.90;;;;;;;;;;5054611;28;20084;-69
2022/09/06 03:29:59;;;;;;;8.10;6.47;;;;;;;;;;5054762;28;20076;-69
2022/09/06 03:32:25;;;;;;;9.23;6.72;;;;;;;;;;5054566;28;20136;-68
2022/09/06 03:34:52;;;;;;;10.20;7.07;;;;;;;;;;5054802;28;20048;-69
2022/09/06 03:37:18;;;;;;;11.40;7.30;;;;;;;;;;5054387;28;20084;-69
2022/09/06 03:39:45;;;;;;;9.85;7.82;;;;;;;;;;5054568;28;20049;-69
2022/09/06 03:42:11;;;;;;;10.07;7.22;;;;;;;;;;5054446;28;20132;-68
2022/09/06 03:44:37;;;;;;;9.93;7.80;;;;;;;;;;5054395;28;20079;-69
2022/09/06 03:47:04;;;;;;;11.32;7.85;;;;;;;;;;5054675;28;20228;-69
2022/09/06 03:49:30;;;;;;;9.00;7.38;;;;;;;;;;5054153;28;20485;-69
2022/09/06 03:51:57;;;;;;;10.38;7.43;;;;;;;;;;5054220;28;20080;-69
2022/09/06 03:54:23;;;;;;;11.38;7.75;;;;;;;;;;5054419;28;20099;-69
2022/09/06 03:56:50;;;;;;;8.93;6.72;;;;;;;;;;5054441;28;20119;-69
2022/09/06 03:59:16;;;;;;;9.02;7.32;;;;;;;;;;5054175;28;20053;-69
2022/09/06 04:01:43;;;;;;;12.25;7.30;;;;;;;;;;5054136;28;20477;-69
2022/09/06 04:04:09;;;;;;;11.98;7.97;;;;;;;;;;5053928;28;20077;-69
2022/09/06 04:06:36;;;;;;;10.73;7.85;;;;;;;;;;5054193;28;20088;-69
2022/09/06 04:09:02;;;;;;;11.68;7.45;;;;;;;;;;5052767;28;20144;-69
2022/09/06 04:11:29;;;;;;;10.80;7.88;;;;;;;;;;5053889;28;20144;-69
2022/09/06 04:13:55;;;;;;;12.55;7.38;;;;;;;;;;5053814;28;20502;-69
2022/09/06 04:16:21;;;;;;;10.32;7.32;;;;;;;;;;5053897;28;20493;-69
2022/09/06 04:18:48;;;;;;;14.98;8.27;;;;;;;;;;5053849;28;20083;-69
2022/09/06 04:21:14;;;;;;;10.60;7.57;;;;;;;;;;5053921;28;20092;-69
2022/09/06 04:23:41;;;;;;;13.38;7.80;;;;;;;;;;5053768;28;20473;-69
2022/09/06 04:26:07;;;;;;;11.40;8.23;;;;;;;;;;5053817;28;20080;-69
2022/09/06 04:28:34;;;;;;;13.90;8.38;;;;;;;;;;5054001;28;20049;-69
2022/09/06 04:31:01;;;;;;;15.05;9.40;;;;;;;;;;5053467;28;20163;-69
2022/09/06 04:33:31;;;;;;;12.82;8.45;;;;;;;;;;5053652;28;20045;-68
2022/09/06 04:35:58;;;;;;;10.70;8.77;;;;;;;;;;5053662;28;20087;-69
2022/09/06 04:38:25;;;;;;;;;;;;;;;;;;5054258;28;20053;-69
2022/09/06 04:40:52;;;;;;;15.18;8.20;;;;;;;;;;5053228;28;19925;-69
2022/09/06 04:43:19;;;;;;;12.43;7.90;;;;;;;;;;5052423;28;20087;-69
2022/09/06 04:45:45;;;;;;;12.43;7.88;;;;;;;;;;5053493;28;20056;-69
2022/09/06 04:48:11;;;;;;;11.82;8.18;;;;;;;;;;5053530;28;20049;-69
2022/09/06 04:50:38;;;;;;;12.88;8.52;;;;;;;;;;5053301;28;20534;-69
2022/09/06 04:53:05;;;;;;;13.07;8.60;;;;;;;;;;5053583;28;20076;-69
2022/09/06 04:55:32;;;;;;;12.75;8.20;;;;;;;;;;5053314;28;20053;-69
2022/09/06 04:57:59;;;;;;;14.90;8.25;;;;;;;;;;5052032;28;20213;-69
2022/09/06 05:00:27;;;;;;;14.93;8.90;;;;;;;;;;5053109;28;20103;-69
2022/09/06 05:02:53;;;;;;;10.65;7.88;;;;;;;;;;5053162;28;20072;-69
2022/09/06 05:05:21;;;;;;;10.10;7.90;;;;;;;;;;5052843;28;20087;-69
2022/09/06 05:07:50;;;;;;;13.32;8.20;;;;;;;;;;5051537;28;20455;-69
2022/09/06 05:10:17;;;;;;;11.65;7.63;;;;;;;;;;5052648;28;20699;-69
2022/09/06 05:12:46;;;;;;;13.00;7.35;;;;;;;;;;5052565;28;20091;-69
2022/09/06 05:15:13;;;;;;;12.20;7.28;;;;;;;;;;5052662;28;20446;-69
2022/09/06 05:17:39;;;;;;;12.77;7.15;;;;;;;;;;5051626;28;20084;-69
2022/09/06 05:20:06;;;;;;;14.13;7.90;;;;;;;;;;5052608;28;20087;-69
2022/09/06 05:22:32;;;;;;;9.75;7.65;;;;;;;;;;5052751;28;20132;-69
2022/09/06 05:24:58;;;;;;;12.52;7.90;;;;;;;;;;5052387;28;20472;-69
2022/09/06 05:27:25;;;;;;;11.93;8.63;;;;;;;;;;5052663;28;20076;-69
2022/09/06 05:29:51;;;;;;;11.13;7.82;;;;;;;;;;5052566;28;20091;-69
2022/09/06 05:32:18;;;;;;;10.40;7.93;;;;;;;;;;5052571;28;20072;-69
2022/09/06 05:34:44;;;;;;;13.55;8.02;;;;;;;;;;5052578;28;20139;-69
2022/09/06 05:37:11;;;;;;;11.07;8.30;;;;;;;;;;5052198;28;20081;-69
2022/09/06 05:39:37;;;;;;;11.10;8.20;;;;;;;;;;5042881;28;20163;-69
2022/09/06 05:42:05;;;;;;;13.25;7.85;;;;;;;;;;5044835;28;20049;-69
2022/09/06 05:44:32;;;;;;;9.90;7.53;;;;;;;;;;5052654;28;20139;-69
2022/09/06 05:46:59;;;;;;;16.27;7.70;;;;;;;;;;5052335;28;20277;-69
2022/09/06 05:49:25;;;;;;;11.55;7.35;;;;;;;;;;5052435;28;20065;-69
2022/09/06 05:51:52;;;;;;;12.20;7.72;;;;;;;;;;5052032;28;20103;-69
2022/09/06 05:54:18;;;;;;;9.70;7.20;;;;;;;;;;5050893;28;20096;-69
2022/09/06 05:56:45;;;;;;;14.65;7.70;;;;;;;;;;5051951;28;20080;-70
2022/09/06 05:59:11;;;;;;;10.10;7.20;;;;;;;;;;5052327;28;20084;-69
2022/09/06 06:01:45;;;;;;;9.57;7.28;;;;;;;;;;5051843;28;20123;-70
2022/09/06 06:04:11;;;;;;;13.90;7.20;;;;;;;;;;5051889;28;20045;-69
2022/09/06 06:06:38;;;;;;;13.02;7.15;;;;;;;;;;5052051;28;20537;-70
2022/09/06 06:09:04;;;;;;;10.43;6.95;;;;;;;;;;5037246;28;20076;-70
2022/09/06 06:11:31;;;;;;;11.43;6.47;;;;;;;;;;5031729;28;20099;-70
2022/09/06 06:14:00;;;;;;;14.52;6.30;;;;;;;;;;5048170;28;20469;-71
2022/09/06 06:16:26;;;;;;;13.13;5.45;;;;;;;;;;5046690;28;20136;-70
2022/09/06 06:18:53;;;;;;;12.52;5.43;;;;;;;;;;5031288;28;20106;-70
2022/09/06 06:21:21;;;;;;;16.55;5.05;;;;;;;;;;5031053;28;20049;-69
2022/09/06 06:23:54;;;;;;;14.85;4.80;;;;;;;;;;5031283;28;20073;-70
2022/09/06 06:26:21;;;;;;;9.82;3.70;;;;;;;;;;5046293;28;20087;-70
2022/09/06 06:28:48;;;;;;;9.20;3.47;;;;;;;;;;5051712;28;20049;-70
2022/09/06 06:31:15;;;;;;;13.52;3.17;;;;;;;;;;5042548;28;20119;-70
2022/09/06 06:33:42;;;;;;;12.73;3.67;;;;;;;;;;5036684;28;20049;-71
2022/09/06 06:36:12;;;;;;;12.20;3.10;;;;;;;;;;5044046;28;20077;-71
2022/09/06 06:38:39;;;;;;;12.07;2.63;;;;;;;;;;5050368;28;20084;-71
2022/09/06 06:41:06;;;;;;;11.45;2.60;;;;;;;;;;5031223;28;20073;-69
2022/09/06 06:43:36;;;;;;;15.18;3.17;;;;;;;;;;5043548;28;20136;-78
2022/09/06 06:46:04;;;;;;;12.20;2.40;;;;;;;;;;5051287;28;20069;-69
2022/09/06 06:48:30;;;;;;;13.10;2.25;;;;;;;;;;5033852;28;20041;-70
2022/09/06 06:50:57;;;;;;;13.38;2.60;;;;;;;;;;5030593;28;20096;-70
2022/09/06 06:53:24;;;;;;;15.05;2.50;;;;;;;;;;5031018;28;20076;-71
2022/09/06 06:55:50;;;;;;;16.23;2.90;;;;;;;;;;5030779;28;20132;-72
2022/09/06 06:58:17;;;;;;;13.95;2.70;;;;;;;;;;5030962;28;20076;-71
2022/09/06 07:00:44;;;;;;;13.10;2.40;;;;;;;;;;5038736;28;20588;-73
2022/09/06 07:03:11;;;;;;;13.75;2.38;;;;;;;;;;5051011;28;20382;-72
2022/09/06 07:05:38;;;;;;;11.40;2.20;;;;;;;;;;5051466;28;20099;-72
2022/09/06 07:08:24;;;;;;;11.60;2.58;;;;;;;;;;5050871;28;20049;-71
2022/09/06 07:10:51;;;;;;;14.45;2.72;;;;;;;;;;5036959;28;20374;-72
2022/09/06 07:13:17;;;;;;;14.85;2.70;;;;;;;;;;5051227;28;20468;-73
2022/09/06 07:15:44;;;;;;;12.33;2.03;;;;;;;;;;5048201;28;20052;-71
2022/09/06 07:18:10;;;;;;;13.77;3.10;;;;;;;;;;5030612;28;20497;-72
2022/09/06 07:20:37;;;;;;;15.02;2.53;;;;;;;;;;5037711;28;20071;-72
2022/09/06 07:23:24;;;;;;;14.53;3.13;;;;;;;;;;5050771;28;20051;-73
2022/09/06 07:26:14;;;;;;;10.30;2.72;;;;;;;;;;5040760;28;20156;-73
2022/09/06 07:28:41;;;;;;;14.10;2.97;;;;;;;;;;5030799;28;20088;-73
2022/09/06 07:31:07;;;;;;;10.85;2.40;;;;;;;;;;5041379;28;20080;-72
2022/09/06 07:33:54;;;;;;;12.93;2.67;;;;;;;;;;5035634;28;20516;-72
2022/09/06 07:36:21;;;;;;;14.52;3.10;;;;;;;;;;5030081;28;20293;-73
2022/09/06 07:38:48;;;;;;;13.73;2.92;;;;;;;;;;5035282;28;20085;-75
2022/09/06 07:41:16;;;;;;;;;;;;;;;;;;5030456;28;20065;-71
2022/09/06 07:43:43;;;;;;;11.43;2.22;;;;;;;;;;5037513;28;19929;-71
2022/09/06 07:46:16;;;;;;;17.17;3.88;;;;;;;;;;5052111;28;20087;-71
2022/09/06 07:48:43;;;;;;;14.80;2.25;;;;;;;;;;5054407;28;20079;-71
2022/09/06 07:51:11;;;;;;;15.25;2.83;;;;;;;;;;5054328;28;20087;-71
2022/09/06 07:53:38;;;;;;;9.95;2.67;;;;;;;;;;5054512;28;20473;-71
2022/09/06 07:56:06;;;;;;;9.95;2.33;;;;;;;;;;5054116;28;20057;-71
2022/09/06 07:58:32;;;;;;;12.23;2.42;;;;;;;;;;5054183;28;20084;-71
2022/09/06 08:01:18;;;;;;;12.43;2.40;;;;;;;;;;5053974;28;20053;-71
2022/09/06 08:03:45;;;;;;;12.00;2.72;;;;;;;;;;5054041;28;20580;-71
2022/09/06 08:06:11;;;;;;;16.45;2.83;;;;;;;;;;5054522;28;20080;-71
2022/09/06 08:08:38;;;;;;;15.60;2.03;;;;;;;;;;5054039;28;20409;-72
2022/09/06 08:11:26;;;;;;;13.50;2.65;;;;;;;;;;5053740;28;20057;-73
2022/09/06 08:13:55;;;;;;;8.40;1.80;;;;;;;;;;5053764;28;20092;-74
2022/09/06 08:16:23;;;;;;;7.70;1.80;;;;;;;;;;5042952;28;20084;-74
2022/09/06 08:18:51;;;;;;;10.52;2.00;;;;;;;;;;5029037;28;20049;-74
2022/09/06 08:21:18;;;;;;;8.30;2.25;;;;;;;;;;5046401;28;20041;-74
2022/09/06 08:24:04;;;;;;;9.27;2.00;;;;;;;;;;5043661;28;20076;-73
2022/09/06 08:26:32;;;;;;;10.63;2.00;;;;;;;;;;5053409;28;20146;-75
2022/09/06 08:29:00;;;;;;;11.18;2.35;;;;;;;;;;5053522;28;20086;-74
2022/09/06 08:31:26;;;;;;;;;;;;;;;;;;5054156;28;20116;-74
2022/09/06 08:33:53;;;;;;;10.37;2.00;;;;;;;;;;5053808;28;20352;-75
2022/09/06 08:36:20;;;;;;;8.38;2.00;;;;;;;;;;5053643;28;20314;-74
2022/09/06 08:38:46;;;;;;;8.48;2.00;;;;;;;;;;5053831;28;20053;-73
2022/09/06 08:41:13;;;;;;;12.10;2.63;;;;;;;;;;5045270;28;20050;-75
2022/09/06 08:43:54;;;;;;;10.90;2.25;;;;;;;;;;5045780;28;20091;-74
2022/09/06 08:46:53;;;;;;;9.68;2.42;;;;;;;;;;5053178;28;20044;-74
2022/09/06 08:49:19;;;;;;;10.55;2.38;;;;;;;;;;5053405;28;20386;-74
2022/09/06 08:51:53;;;;;;;9.88;2.10;;;;;;;;;;5035868;28;20152;-74
2022/09/06 08:54:28;;;;;;;10.20;2.50;;;;;;;;;;5052617;28;20144;-74
2022/09/06 08:56:57;;;;;;;9.93;2.60;;;;;;;;;;5052959;28;20067;-74
2022/09/06 08:59:24;;;;;;;9.10;2.40;;;;;;;;;;5053137;28;20087;-74
2022/09/06 09:01:59;;;;;;;8.02;2.15;;;;;;;;;;5052597;28;20083;-74
2022/09/06 09:04:27;;;;;;;12.13;2.20;;;;;;;;;;5053295;28;20152;-75
2022/09/06 09:06:57;;;;;;;10.82;2.00;;;;;;;;;;5052905;28;20076;-74
2022/09/06 09:09:23;;;;;;;12.43;2.20;;;;;;;;;;5051382;28;20083;-73
2022/09/06 09:11:50;;;;;;;9.32;2.45;;;;;;;;;;5052784;28;20096;-74
2022/09/06 09:14:22;;;;;;;8.13;2.10;;;;;;;;;;5052575;28;20110;-75
2022/09/06 09:16:50;;;;;;;9.77;2.50;;;;;;;;;;5052816;28;20077;-74
2022/09/06 09:19:16;;;;;;;10.00;2.42;;;;;;;;;;5052743;28;20049;-74
2022/09/06 09:21:43;;;;;;;10.40;2.53;;;;;;;;;;5052379;28;20572;-73
2022/09/06 09:24:11;;;;;;;7.40;2.20;;;;;;;;;;5052714;28;20095;-74
2022/09/06 09:26:43;;;;;;;10.02;2.72;;;;;;;;;;5052688;28;20095;-74
2022/09/06 09:29:11;;;;;;;9.07;1.90;;;;;;;;;;5052755;28;20084;-74
2022/09/06 09:31:39;;;;;;;14.18;2.72;;;;;;;;;;5052655;28;20081;-74
2022/09/06 09:34:10;;;;;;;9.60;2.10;;;;;;;;;;5040932;28;20045;-73
2022/09/06 09:36:36;;;;;;;11.98;2.65;;;;;;;;;;5032897;28;20512;-74
2022/09/06 09:39:08;;;;;;;11.32;2.40;;;;;;;;;;5052058;28;20547;-74
2022/09/06 09:41:37;;;;;;;11.10;2.20;;;;;;;;;;5040922;28;20099;-74
2022/09/06 09:44:04;;;;;;;10.20;2.47;;;;;;;;;;5051804;28;20134;-74
2022/09/06 09:46:33;;;;;;;11.45;2.25;;;;;;;;;;5051506;28;20430;-74
2022/09/06 09:49:05;;;;;;;8.45;1.95;;;;;;;;;;5051716;28;20056;-74
2022/09/06 09:51:33;;;;;;;7.97;2.13;;;;;;;;;;5051694;28;20107;-75
2022/09/06 09:54:02;;;;;;;9.45;2.00;;;;;;;;;;5041872;28;20072;-76
2022/09/06 09:56:35;;;;;;;11.00;2.63;;;;;;;;;;5051352;28;20091;-75
2022/09/06 09:59:06;;;;;;;8.35;2.05;;;;;;;;;;5050019;28;20079;-74
2022/09/06 10:01:32;;;;;;;7.15;1.80;;;;;;;;;;5050377;28;20048;-74
2022/09/06 10:04:00;;;;;;;8.90;2.30;;;;;;;;;;5051067;28;20137;-73
2022/09/06 10:06:47;;;;;;;8.68;2.13;;;;;;;;;;5050677;28;20516;-74
2022/09/06 10:09:35;;;;;;;10.40;1.92;;;;;;;;;;5047910;28;20053;-75
2022/09/06 10:12:02;;;;;;;12.68;2.28;;;;;;;;;;5051238;28;20088;-76
2022/09/06 10:14:30;;;;;;;4.13;1.63;;;;;;;;;;5051547;28;20079;-75
2022/09/06 10:16:57;;;;;;;9.75;1.40;;;;;;;;;;5051237;28;20048;-76
2022/09/06 10:19:40;;;;;;;5.45;1.45;;;;;;;;;;5051162;28;20080;-75
2022/09/06 10:22:19;;;;;;;5.60;1.52;;;;;;;;;;5049893;28;20080;-75
2022/09/06 10:25:04;;;;;;;10.50;1.83;;;;;;;;;;5051099;28;20076;-76
2022/09/06 10:27:32;;;;;;;10.45;2.05;;;;;;;;;;5051217;28;20045;-76
2022/09/06 10:30:05;;;;;;;9.00;2.08;;;;;;;;;;5037475;28;20054;-76
2022/09/06 10:32:43;;;;;;;9.45;1.85;;;;;;;;;;5024057;28;20505;-76
2022/09/06 10:35:22;;;;;;;8.80;1.80;;;;;;;;;;5051619;28;20049;-75
2022/09/06 10:37:48;;;;;;;11.30;1.85;;;;;;;;;;5051690;28;20447;-76
2022/09/06 10:40:25;;;;;;;6.72;2.17;;;;;;;;;;5051294;28;20087;-75
2022/09/06 10:42:53;;;;;;;11.40;2.28;;;;;;;;;;5051600;28;20053;-75
2022/09/06 10:45:22;;;;;;;4.85;1.75;;;;;;;;;;5051401;28;20094;-77
2022/09/06 10:47:51;;;;;;;7.35;1.95;;;;;;;;;;5051620;28;20045;-75
2022/09/06 10:50:18;;;;;;;6.38;1.42;;;;;;;;;;5050035;28;20497;-76
2022/09/06 10:52:47;;;;;;;8.47;1.40;;;;;;;;;;5051531;28;20095;-75
2022/09/06 10:55:15;;;;;;;6.65;1.42;;;;;;;;;;5051148;28;20053;-73
2022/09/06 10:57:51;;;;;;;8.25;1.85;;;;;;;;;;5051423;28;20080;-75
2022/09/06 11:00:42;;;;;;;6.15;1.45;;;;;;;;;;5051089;28;20079;-75
2022/09/06 11:03:08;;;;;;;5.97;1.20;;;;;;;;;;5051102;28;20558;-75
2022/09/06 11:06:01;;;;;;;6.68;1.30;;;;;;;;;;5044494;28;20056;-75
2022/09/06 11:08:35;;;;;;;7.10;1.40;;;;;;;;;;5044497;28;20481;-75
2022/09/06 11:11:34;;;;;;;4.38;1.20;;;;;;;;;;5050011;28;20509;-75
2022/09/06 11:14:04;;;;;;;5.25;1.00;;;;;;;;;;5051061;28;20497;-75
2022/09/06 11:16:38;;;;;;;6.30;1.33;;;;;;;;;;5051564;28;20045;-76
2022/09/06 11:19:07;;;;;;;3.70;1.15;;;;;;;;;;5055273;28;20053;-75
2022/09/06 11:21:53;;;;;;;5.13;1.52;;;;;;;;;;5054977;28;20088;-75
2022/09/06 11:24:38;;;;;;;4.47;1.27;;;;;;;;;;5053490;28;20501;-76
2022/09/06 11:27:14;;;;;;;6.82;1.40;;;;;;;;;;5054626;28;20071;-76
2022/09/06 11:29:41;;;;;;;4.40;1.37;;;;;;;;;;5049191;28;20100;-75
2022/09/06 11:32:26;;;;;;;6.47;1.48;;;;;;;;;;5046635;28;20103;-74
2022/09/06 11:34:54;;;;;;;6.47;1.40;;;;;;;;;;5054401;28;20141;-74
2022/09/06 11:37:29;;;;;;;5.00;1.20;;;;;;;;;;5041678;28;20084;-75
2022/09/06 11:40:03;;;;;;;4.15;1.10;;;;;;;;;;5054372;28;20096;-75
2022/09/06 11:42:49;;;;;;;5.03;1.20;;;;;;;;;;5052665;28;20040;-76
2022/09/06 11:45:20;;;;;;;4.82;1.25;;;;;;;;;;5054144;28;20048;-74
2022/09/06 11:47:48;;;;;;;4.75;1.33;;;;;;;;;;5051330;28;20084;-75
2022/09/06 11:50:21;;;;;;;5.90;1.05;;;;;;;;;;5046671;28;20103;-74
2022/09/06 11:52:48;;;;;;;4.00;1.00;;;;;;;;;;5053516;28;20080;-76
2022/09/06 11:55:16;;;;;;;3.63;1.10;;;;;;;;;;5053583;28;20068;-75
2022/09/06 11:57:52;;;;;;;3.22;1.00;;;;;;;;;;5053920;28;20087;-76
2022/09/06 12:00:22;;;;;;;5.00;1.10;;;;;;;;;;5053497;28;20091;-74
2022/09/06 12:02:49;;;;;;;4.72;1.02;;;;;;;;;;5052955;28;20452;-75
2022/09/06 12:05:18;;;;;;;5.57;1.15;;;;;;;;;;5040092;28;20037;-76
2022/09/06 12:08:03;;;;;;;5.30;1.20;;;;;;;;;;5053493;28;20078;-75
2022/09/06 12:10:30;;;;;;;4.82;1.33;;;;;;;;;;5051350;28;20080;-75
2022/09/06 12:12:57;;;;;;;6.32;1.23;;;;;;;;;;5053601;28;20082;-75
2022/09/06 12:15:30;;;;;;;4.38;1.55;;;;;;;;;;5053227;28;20460;-75
2022/09/06 12:17:58;;;;;;;6.30;1.48;;;;;;;;;;5053470;28;20111;-75
2022/09/06 12:20:43;;;;;;;4.57;1.13;;;;;;;;;;5053148;28;20053;-75
2022/09/06 12:23:29;;;;;;;6.70;1.55;;;;;;;;;;5053508;28;20144;-75
2022/09/06 12:25:56;;;;;;;4.90;0.95;;;;;;;;;;5045256;28;20077;-75
2022/09/06 12:28:33;;;;;;;3.88;0.95;;;;;;;;;;5052482;28;20091;-75
2022/09/06 12:31:16;;;;;;;5.28;1.48;;;;;;;;;;5053601;28;20064;-76
2022/09/06 12:33:45;;;;;;;4.20;1.10;;;;;;;;;;5053206;28;20049;-75
2022/09/06 12:36:21;;;;;;;6.95;1.40;;;;;;;;;;5052987;28;20040;-75
2022/09/06 12:38:56;;;;;;;4.20;1.25;;;;;;;;;;5053051;28;20080;-76
2022/09/06 12:41:23;;;;;;;6.15;1.10;;;;;;;;;;5053063;28;20049;-75
2022/09/06 12:43:49;;;;;;;5.72;1.33;;;;;;;;;;5052649;28;20084;-76
2022/09/06 12:46:16;;;;;;;4.45;1.10;;;;;;;;;;5051501;28;20073;-76
2022/09/06 12:48:43;;;;;;;;;;;;;;;;;;5053703;28;20552;-76
2022/09/06 12:51:18;;;;;;;4.00;1.02;;;;;;;;;;5052482;28;19924;-76
2022/09/06 12:53:58;;;;;;;4.22;1.20;;;;;;;;;;5052826;28;20083;-76
2022/09/06 12:56:25;;;;;;;4.82;1.33;;;;;;;;;;5052835;28;20072;-76
2022/09/06 12:58:52;;;;;;;5.38;1.00;;;;;;;;;;5052753;28;20103;-76
2022/09/06 13:01:18;;;;;;;4.97;1.10;;;;;;;;;;5052212;28;20504;-75
2022/09/06 13:03:45;;;;;;;4.35;0.80;;;;;;;;;;5052666;28;20052;-76
2022/09/06 13:06:14;;;;;;;6.25;1.10;;;;;;;;;;5052621;28;20048;-77
2022/09/06 13:08:46;;;;;;;4.78;0.80;;;;;;;;;;5050094;28;20778;-75
2022/09/06 13:11:13;;;;;;;3.47;0.80;;;;;;;;;;5052694;28;20072;-75
2022/09/06 13:13:47;;;;;;;4.38;1.30;;;;;;;;;;5052146;28;20072;-76
2022/09/06 13:16:24;;;;;;;4.05;0.98;;;;;;;;;;5052370;28;20121;-75
2022/09/06 13:18:51;;;;;;;7.05;5.32;;;;;;;;;;5050094;28;20106;-76
2022/09/06 13:21:19;;;;;;;;;;;;;;;;;;5039625;28;20053;-75
2022/09/06 13:23:48;;;;;;;64.28;46.58;;;;;;;;;;5052023;28;19979;-76
2022/09/06 13:26:30;;;;;;;23.90;20.40;;;;;;;;;;5039012;28;20136;-75
2022/09/06 13:28:56;;;;;;;12.13;10.93;;;;;;;;;;5052207;28;20083;-76
2022/09/06 13:31:24;;;;;;;3.78;2.20;;;;;;;;;;5051876;28;20072;-76
2022/09/06 13:33:55;;;;;;;7.10;5.82;;;;;;;;;;5052142;28;20064;-76
2022/09/06 13:36:26;;;;;;;6.28;1.48;;;;;;;;;;5051791;28;20076;-76
2022/09/06 13:38:54;;;;;;;11.30;9.27;;;;;;;;;;5052209;28;20084;-75
2022/09/06 13:41:23;;;;;;;4.90;1.23;;;;;;;;;;5051508;28;20077;-76
2022/09/06 13:44:16;;;;;;;13.30;7.20;;;;;;;;;;5051859;28;20083;-76
2022/09/06 13:46:43;;;;;;;8.57;5.18;;;;;;;;;;5049856;28;20087;-77
2022/09/06 13:49:09;;;;;;;8.25;1.27;;;;;;;;;;5051724;28;20421;-77
2022/09/06 13:51:36;;;;;;;15.00;9.07;;;;;;;;;;5051565;28;20448;-76
2022/09/06 13:54:07;;;;;;;7.40;2.83;;;;;;;;;;5037100;28;20460;-77
2022/09/06 13:56:34;;;;;;;4.18;0.95;;;;;;;;;;5051992;28;20049;-77
2022/09/06 13:59:00;;;;;;;7.70;1.65;;;;;;;;;;5051892;28;20057;-76
2022/09/06 14:01:27;;;;;;;4.40;1.25;;;;;;;;;;5051979;28;20459;-76
2022/09/06 14:03:53;;;;;;;24.27;19.13;;;;;;;;;;5051866;28;20056;-76
2022/09/06 14:06:20;;;;;;;11.05;5.88;;;;;;;;;;5051806;28;20064;-76
2022/09/06 14:08:46;;;;;;;6.88;3.70;;;;;;;;;;5049510;28;20076;-76
2022/09/06 14:11:34;;;;;;;15.10;11.38;;;;;;;;;;5051738;28;20095;-75
2022/09/06 14:14:00;;;;;;;5.53;1.67;;;;;;;;;;5051547;28;20053;-76
2022/09/06 14:16:27;;;;;;;6.45;2.03;;;;;;;;;;5051669;28;20053;-76
2022/09/06 14:18:53;;;;;;;29.55;23.23;;;;;;;;;;5051768;28;20052;-76
2022/09/06 14:21:20;;;;;;;9.98;4.00;;;;;;;;;;5051468;28;20088;-76
2022/09/06 14:23:50;;;;;;;11.15;5.68;;;;;;;;;;5051278;28;20545;-77
2022/09/06 14:26:17;;;;;;;5.50;2.20;;;;;;;;;;5043464;28;20076;-75
2022/09/06 14:28:44;;;;;;;84.72;72.28;;;;;;;;;;5050994;28;20107;-76
2022/09/06 14:31:11;;;;;;;58.70;50.42;;;;;;;;;;5051337;28;20087;-76
2022/09/06 14:33:37;;;;;;;14.32;8.65;;;;;;;;;;5051141;28;20049;-76
2022/09/06 14:36:06;;;;;;;11.15;6.40;;;;;;;;;;5051246;28;20079;-76
2022/09/06 14:38:34;;;;;;;10.23;5.82;;;;;;;;;;5051105;28;20500;-75
2022/09/06 14:41:03;;;;;;;15.73;11.15;;;;;;;;;;5050842;28;20057;-75
2022/09/06 14:43:30;;;;;;;5.88;1.98;;;;;;;;;;5050987;28;20062;-76
2022/09/06 14:46:07;;;;;;;8.20;3.22;;;;;;;;;;5049877;28;20041;-75
2022/09/06 14:48:34;;;;;;;13.20;7.15;;;;;;;;;;5051094;28;20052;-75
2022/09/06 14:51:08;;;;;;;8.85;3.25;;;;;;;;;;5051328;28;20041;-74
2022/09/06 14:53:36;;;;;;;7.18;1.35;;;;;;;;;;5040937;28;20081;-75